Time;durP1;ratioP1;P1;durP2;ratioP2;P2;SDS_P1;SDS_P2;PMS_P1;PMS_P2;Temp;Humidity;BMP_temperature;BMP_pressure;BME280_temperature;BME280_humidity;BME280_pressure;Samples;Min_cycle;Max_cycle;Signal;HPM_P1;HPM_P2
2022/09/13 00:00:50;;;;;;;6.43;5.05;;;;;;;16.47;100.00;100753.44;1970668;28;20030;-64
2022/09/13 00:01:47;;;;;;;6.53;5.60;;;;;;;16.51;100.00;100761.13;1969940;28;20089;-64
2022/09/13 00:02:44;;;;;;;7.65;5.55;;;;;;;16.50;100.00;100759.44;1969918;28;20164;-64
2022/09/13 00:03:42;;;;;;;9.27;5.32;;;;;;;16.43;100.00;100756.38;1970707;28;20071;-63
2022/09/13 00:04:40;;;;;;;6.53;5.20;;;;;;;16.47;100.00;100763.97;1970557;28;20026;-64
2022/09/13 00:05:38;;;;;;;7.40;4.93;;;;;;;16.52;100.00;100760.19;1970429;28;20022;-64
2022/09/13 00:06:36;;;;;;;7.97;5.03;;;;;;;16.53;100.00;100756.59;1968505;28;20088;-64
2022/09/13 00:07:33;;;;;;;6.95;5.35;;;;;;;16.58;100.00;100759.75;1970613;28;20123;-64
2022/09/13 00:08:30;;;;;;;9.45;5.03;;;;;;;16.59;100.00;100753.53;1977738;28;20137;-64
2022/09/13 00:09:28;;;;;;;5.47;4.97;;;;;;;16.59;100.00;100756.16;1977742;28;20172;-63
2022/09/13 00:10:26;;;;;;;7.10;5.22;;;;;;;16.62;100.00;100761.22;1971395;28;20034;-64
2022/09/13 00:11:26;;;;;;;6.13;5.50;;;;;;;16.65;100.00;100761.00;1970573;28;20106;-63
2022/09/13 00:12:24;;;;;;;5.45;4.80;;;;;;;16.65;100.00;100761.00;1970419;28;20512;-63
2022/09/13 00:13:22;;;;;;;5.32;4.78;;;;;;;16.65;100.00;100766.28;1970558;28;20029;-63
2022/09/13 00:14:19;;;;;;;6.82;5.03;;;;;;;16.68;100.00;100763.44;1970595;28;20032;-63
2022/09/13 00:15:17;;;;;;;7.50;5.18;;;;;;;16.70;100.00;100764.16;1969873;28;20461;-63
2022/09/13 00:16:18;;;;;;;5.43;4.93;;;;;;;16.67;100.00;100761.75;1969898;28;20052;-63
2022/09/13 00:17:15;;;;;;;6.80;4.78;;;;;;;16.68;100.00;100763.44;1970214;28;20061;-63
2022/09/13 00:18:14;;;;;;;6.82;5.43;;;;;;;16.69;100.00;100757.22;1970517;28;20096;-63
2022/09/13 00:19:12;;;;;;;8.60;5.32;;;;;;;16.73;100.00;100763.09;1970616;28;20120;-63
2022/09/13 00:20:09;;;;;;;6.10;5.50;;;;;;;16.70;100.00;100756.25;1970462;28;20049;-63
2022/09/13 00:21:12;;;;;;;8.35;5.18;;;;;;;16.75;100.00;100758.56;1970597;28;20130;-63
2022/09/13 00:22:09;;;;;;;6.80;5.10;;;;;;;16.73;100.00;100758.69;1969839;28;20548;-64
2022/09/13 00:23:07;;;;;;;5.35;4.72;;;;;;;16.77;100.00;100753.19;1970014;28;20046;-64
2022/09/13 00:24:04;;;;;;;5.78;4.88;;;;;;;16.79;100.00;100746.00;1970385;28;20029;-64
2022/09/13 00:25:05;;;;;;;9.00;5.63;;;;;;;16.77;100.00;100747.94;1970563;28;20033;-65
2022/09/13 00:26:10;;;;;;;6.72;5.20;;;;;;;16.79;100.00;100746.00;1970489;28;20041;-65
2022/09/13 00:27:07;;;;;;;7.28;5.28;;;;;;;16.77;100.00;100747.94;1970579;28;20172;-64
2022/09/13 00:28:05;;;;;;;7.20;5.38;;;;;;;16.78;100.00;100744.34;1970359;28;20030;-64
2022/09/13 00:29:03;;;;;;;6.18;5.00;;;;;;;16.79;100.00;100741.59;1970479;28;20105;-64
2022/09/13 00:30:01;;;;;;;8.48;5.13;;;;;;;16.82;100.00;100735.25;1970318;28;20041;-64
2022/09/13 00:31:01;;;;;;;7.10;5.30;;;;;;;16.84;100.00;100742.09;1970401;28;20444;-64
2022/09/13 00:31:59;;;;;;;6.95;5.05;;;;;;;16.85;100.00;100740.31;1970289;28;20381;-64
2022/09/13 00:32:57;;;;;;;5.88;4.97;;;;;;;16.86;100.00;100747.25;1970472;28;20034;-64
2022/09/13 00:33:57;;;;;;;9.43;4.72;;;;;;;16.86;100.00;100742.00;1970441;28;20041;-64
2022/09/13 00:34:54;;;;;;;5.35;4.85;;;;;;;16.86;100.00;100744.63;1970359;28;20036;-64
2022/09/13 00:35:52;;;;;;;7.38;4.85;;;;;;;16.84;100.00;100746.56;1969748;28;20032;-64
2022/09/13 00:36:49;;;;;;;6.85;4.95;;;;;;;16.86;100.00;100737.56;1967637;28;20038;-64
2022/09/13 00:37:46;;;;;;;6.60;5.20;;;;;;;16.86;100.00;100742.84;1968852;28;20052;-64
2022/09/13 00:38:44;;;;;;;6.95;5.22;;;;;;;16.85;100.00;100743.81;1969789;28;20057;-64
2022/09/13 00:39:42;;;;;;;6.50;5.20;;;;;;;16.86;100.00;100739.34;1970373;28;20493;-62
2022/09/13 00:40:40;;;;;;;5.97;5.18;;;;;;;16.86;100.00;100739.34;1970362;28;20401;-64
2022/09/13 00:41:38;;;;;;;7.18;5.22;;;;;;;16.85;100.00;100741.19;1969742;28;20116;-64
2022/09/13 00:42:36;;;;;;;7.07;4.85;;;;;;;16.85;100.00;100742.97;1969808;28;20072;-64
2022/09/13 00:43:46;;;;;;;8.35;5.25;;;;;;;16.85;100.00;100735.06;1970344;28;20047;-64
2022/09/13 00:45:11;;;;;;;7.85;4.93;;;;;;;16.79;100.00;100735.47;1970346;28;20037;-64
2022/09/13 00:46:20;;;;;;;5.18;4.68;;;;;;;16.79;100.00;100735.47;1969613;28;20056;-64
2022/09/13 00:47:39;;;;;;;7.05;5.03;;;;;;;16.76;100.00;100727.81;1969722;28;20495;-65
2022/09/13 00:48:36;;;;;;;5.35;4.80;;;;;;;16.78;100.00;100728.53;1970077;28;20044;-64
2022/09/13 00:49:41;;;;;;;6.40;4.80;;;;;;;16.79;100.00;100727.56;1970382;28;20045;-64
2022/09/13 00:50:54;;;;;;;7.22;4.85;;;;;;;16.76;100.00;100725.16;1970142;28;20042;-64
2022/09/13 00:52:04;;;;;;;5.38;4.85;;;;;;;16.77;100.00;100725.06;1970356;28;20018;-65
2022/09/13 00:53:13;;;;;;;5.47;4.97;;;;;;;16.78;100.00;100728.53;1969562;28;20036;-65
2022/09/13 00:54:14;;;;;;;5.03;4.53;;;;;;;16.79;100.00;100730.19;1969740;28;20025;-64
2022/09/13 00:55:26;;;;;;;6.70;4.90;;;;;;;16.79;100.00;100719.66;1970265;28;20025;-64
2022/09/13 00:56:40;;;;;;;8.55;5.28;;;;;;;16.79;100.00;100724.94;1970330;28;20030;-64
2022/09/13 00:57:39;;;;;;;5.78;4.85;;;;;;;16.78;100.00;100717.97;1970285;28;20057;-64
2022/09/13 00:58:47;;;;;;;5.70;4.93;;;;;;;16.79;100.00;100715.25;1970309;28;20025;-64
2022/09/13 01:00:17;;;;;;;8.15;4.93;;;;;;;16.81;100.00;100723.03;1970186;28;20288;-63
2022/09/13 01:01:19;;;;;;;6.75;5.10;;;;;;;16.79;100.00;100714.38;1966985;28;20507;-65
2022/09/13 01:02:18;;;;;;;7.45;5.15;;;;;;;16.83;100.00;100721.13;1970226;28;20503;-64
2022/09/13 01:03:19;;;;;;;5.47;4.85;;;;;;;16.84;97.83;100712.28;1970070;28;20049;-65
2022/09/13 01:04:21;;;;;;;4.63;4.22;;;;;;;16.91;99.36;100710.06;1970214;28;20037;-64
2022/09/13 01:05:26;;;;;;;5.93;4.93;;;;;;;16.93;99.19;100714.25;1969992;28;20068;-64
2022/09/13 01:06:29;;;;;;;6.45;5.15;;;;;;;16.95;99.14;100715.00;1968941;28;20478;-64
2022/09/13 01:07:27;;;;;;;7.35;4.85;;;;;;;16.96;99.09;100714.03;1969972;28;20036;-64
2022/09/13 01:08:30;;;;;;;8.32;4.90;;;;;;;16.97;97.80;100714.91;1970160;28;20036;-64
2022/09/13 01:09:32;;;;;;;5.97;4.70;;;;;;;16.99;98.37;100710.34;1970141;28;20055;-64
2022/09/13 01:10:30;;;;;;;6.55;4.65;;;;;;;17.03;97.98;100710.94;1969578;28;20065;-65
2022/09/13 01:11:46;;;;;;;5.85;4.43;;;;;;;17.03;95.86;100714.44;1969512;28;20026;-65
2022/09/13 01:12:49;;;;;;;4.78;4.38;;;;;;;17.05;97.60;100711.69;1970225;28;20057;-65
2022/09/13 01:13:47;;;;;;;4.97;4.45;;;;;;;17.05;97.23;100709.06;1970059;28;20448;-64
2022/09/13 01:14:47;;;;;;;6.38;4.78;;;;;;;17.06;97.30;100708.13;1970117;28;20080;-64
2022/09/13 01:15:45;;;;;;;5.68;4.20;;;;;;;17.06;97.04;100710.75;1970099;28;20038;-64
2022/09/13 01:16:43;;;;;;;8.82;4.93;;;;;;;17.10;97.38;100706.94;1969347;28;20037;-64
2022/09/13 01:17:42;;;;;;;7.28;4.38;;;;;;;17.08;97.26;100706.25;1969669;28;20108;-64
2022/09/13 01:18:39;;;;;;;5.68;4.13;;;;;;;17.05;96.96;100703.78;1969988;28;20026;-63
2022/09/13 01:19:37;;;;;;;7.00;4.50;;;;;;;17.07;96.99;100702.75;1970159;28;20041;-64
2022/09/13 01:21:29;;;;;;;6.45;4.25;;;;;;;17.05;96.77;100706.41;1970050;28;20589;-63
2022/09/13 01:23:17;;;;;;;4.65;4.20;;;;;;;16.98;96.47;100706.03;1948392;28;20036;-63
2022/09/13 01:24:56;;;;;;;5.85;4.50;;;;;;;16.96;96.83;100706.13;1970064;28;20033;-64
2022/09/13 01:26:34;;;;;;;6.00;4.22;;;;;;;16.99;97.29;100700.66;1969419;28;20104;-63
2022/09/13 01:28:07;;;;;;;4.63;4.15;;;;;;;17.05;96.46;100702.03;1970060;28;20029;-64
2022/09/13 01:29:41;;;;;;;6.45;4.55;;;;;;;17.03;95.89;100700.41;1970052;28;20026;-63
2022/09/13 01:31:18;;;;;;;6.20;3.90;;;;;;;17.06;95.92;100700.22;1969866;28;20034;-64
2022/09/13 01:33:00;;;;;;;6.53;3.95;;;;;;;17.03;96.01;100695.13;1969974;28;20030;-64
2022/09/13 01:34:13;;;;;;;4.38;3.97;;;;;;;17.02;96.58;100694.31;1944882;28;20113;-64
2022/09/13 01:35:38;;;;;;;5.05;4.15;;;;;;;17.02;96.27;100698.72;1969860;28;20033;-64
2022/09/13 01:36:53;;;;;;;6.43;4.25;;;;;;;16.99;96.26;100690.09;1967755;28;20040;-64
2022/09/13 01:38:03;;;;;;;6.28;4.13;;;;;;;16.97;96.73;100694.63;1970112;28;20392;-64
2022/09/13 01:39:07;;;;;;;5.03;4.40;;;;;;;16.96;96.63;100695.59;1969947;28;20026;-64
2022/09/13 01:40:28;;;;;;;6.57;4.40;;;;;;;16.94;96.72;100700.13;1969991;28;20034;-64
2022/09/13 01:42:23;;;;;;;5.10;4.55;;;;;;;16.93;97.65;100695.81;1969893;28;20029;-64
2022/09/13 01:44:02;;;;;;;7.70;4.15;;;;;;;16.84;100.00;100693.84;1930829;29;20069;-64
2022/09/13 01:45:19;;;;;;;5.18;4.45;;;;;;;16.79;99.59;100695.94;1935560;29;20027;-64
2022/09/13 01:46:31;;;;;;;4.70;4.28;;;;;;;16.76;100.00;100693.56;1938526;29;20062;-64
2022/09/13 01:48:11;;;;;;;5.90;4.10;;;;;;;16.71;100.00;100697.34;1930934;29;20048;-63
2022/09/13 01:49:51;;;;;;;6.90;4.65;;;;;;;16.64;100.00;100704.00;1954976;28;20041;-64
2022/09/13 01:51:07;;;;;;;6.70;4.03;;;;;;;16.61;100.00;100701.59;1969909;28;20033;-64
2022/09/13 01:52:24;;;;;;;8.07;4.50;;;;;;;16.60;100.00;100694.63;1969203;28;20026;-64
2022/09/13 01:53:50;;;;;;;7.18;4.03;;;;;;;16.60;100.00;100702.53;1969344;28;20025;-64
2022/09/13 01:55:22;;;;;;;4.63;4.22;;;;;;;16.54;100.00;100692.44;1952300;28;20125;-64
2022/09/13 01:56:50;;;;;;;6.88;4.20;;;;;;;16.54;100.00;100695.91;1969871;28;20089;-64
2022/09/13 01:58:26;;;;;;;6.20;4.22;;;;;;;16.50;100.00;100688.31;1969196;28;20036;-64
2022/09/13 01:59:58;;;;;;;8.95;4.22;;;;;;;16.46;100.00;100688.53;1969180;28;20022;-64
2022/09/13 02:01:20;;;;;;;8.50;4.20;;;;;;;16.39;100.00;100697.81;1969822;28;20030;-64
2022/09/13 02:02:40;;;;;;;8.70;4.55;;;;;;;16.38;100.00;100688.22;1969711;28;20052;-64
2022/09/13 02:04:11;;;;;;;6.00;4.50;;;;;;;16.36;100.00;100695.41;1969898;28;20046;-64
2022/09/13 02:05:34;;;;;;;7.30;4.40;;;;;;;16.34;100.00;100689.41;1969765;28;20022;-64
2022/09/13 02:07:06;;;;;;;5.40;4.38;;;;;;;16.32;100.00;100692.13;1967676;28;20044;-64
2022/09/13 02:08:34;;;;;;;6.28;4.80;;;;;;;16.29;100.00;100689.69;1969742;28;20045;-64
2022/09/13 02:09:40;;;;;;;4.72;4.32;;;;;;;16.27;100.00;100698.66;1969907;28;20079;-64
2022/09/13 02:10:46;;;;;;;4.88;4.38;;;;;;;16.30;100.00;100698.47;1969840;28;20032;-64
2022/09/13 02:11:53;;;;;;;7.60;4.93;;;;;;;16.32;100.00;100693.94;1969946;28;20022;-64
2022/09/13 02:12:56;;;;;;;7.07;4.40;;;;;;;16.34;100.00;100695.50;1969773;28;20018;-64
2022/09/13 02:14:11;;;;;;;5.65;4.63;;;;;;;16.36;100.00;100687.50;1969879;28;20509;-64
2022/09/13 02:15:15;;;;;;;6.28;4.28;;;;;;;16.36;100.00;100692.78;1969820;28;20030;-64
2022/09/13 02:16:30;;;;;;;6.03;4.68;;;;;;;16.40;100.00;100693.38;1969043;28;20057;-64
2022/09/13 02:17:37;;;;;;;5.50;4.85;;;;;;;16.39;100.00;100697.81;1969357;28;20046;-64
2022/09/13 02:18:40;;;;;;;6.07;4.40;;;;;;;16.39;100.00;100695.16;1969777;28;20516;-64
2022/09/13 02:19:44;;;;;;;5.75;4.95;;;;;;;16.42;100.00;100699.41;1969188;28;20030;-64
2022/09/13 02:20:46;;;;;;;5.57;4.57;;;;;;;16.45;100.00;100699.16;1969213;28;20063;-64
2022/09/13 02:21:53;;;;;;;5.15;4.70;;;;;;;16.44;100.00;100700.97;1969829;28;20457;-64
2022/09/13 02:22:57;;;;;;;6.82;4.90;;;;;;;16.46;100.00;100692.97;1969771;28;20035;-64
2022/09/13 02:24:21;;;;;;;8.10;4.85;;;;;;;16.46;100.00;100698.25;1969846;28;20040;-64
2022/09/13 02:25:24;;;;;;;4.55;4.10;;;;;;;16.40;100.00;100688.13;1969685;28;20030;-64
2022/09/13 02:26:24;;;;;;;5.63;4.47;;;;;;;16.38;100.00;100701.41;1969832;28;20094;-64
2022/09/13 02:27:27;;;;;;;6.93;4.57;;;;;;;16.39;100.00;100692.53;1969048;28;20159;-64
2022/09/13 02:28:36;;;;;;;6.22;4.57;;;;;;;16.40;100.00;100699.50;1969239;28;20029;-64
2022/09/13 02:29:39;;;;;;;8.20;4.63;;;;;;;16.39;100.00;100703.06;1969739;28;20029;-64
2022/09/13 02:30:46;;;;;;;7.57;4.97;;;;;;;16.39;100.00;100694.34;1969815;28;20034;-64
2022/09/13 02:31:57;;;;;;;5.70;4.70;;;;;;;16.38;100.00;100701.41;1969505;28;20041;-64
2022/09/13 02:33:05;;;;;;;;;;;;;;;16.27;100.00;100703.94;1970236;28;20117;-64
2022/09/13 02:34:14;;;;;;;7.82;5.00;;;;;;;16.29;100.00;100696.78;1969871;28;19916;-64
2022/09/13 02:35:22;;;;;;;6.60;5.30;;;;;;;16.32;100.00;100704.47;1968943;28;20018;-65
2022/09/13 02:36:31;;;;;;;5.82;5.22;;;;;;;16.33;100.00;100706.16;1969282;28;20468;-64
2022/09/13 02:37:35;;;;;;;5.90;5.30;;;;;;;16.33;100.00;100704.34;1969604;28;20421;-64
2022/09/13 02:38:44;;;;;;;7.75;4.60;;;;;;;16.35;100.00;100707.72;1969832;28;20033;-64
2022/09/13 02:39:52;;;;;;;6.03;4.75;;;;;;;16.34;100.00;100705.19;1969106;28;20499;-64
2022/09/13 02:41:09;;;;;;;6.70;4.82;;;;;;;16.34;100.00;100707.81;1969237;28;20044;-64
2022/09/13 02:42:48;;;;;;;5.25;4.75;;;;;;;16.32;100.00;100713.19;1969682;28;20062;-64
2022/09/13 02:43:53;;;;;;;6.22;5.03;;;;;;;16.33;100.00;100714.88;1969188;28;20096;-64
2022/09/13 02:44:54;;;;;;;5.97;4.78;;;;;;;16.38;100.00;100717.19;1969685;28;20076;-64
2022/09/13 02:46:20;;;;;;;5.90;5.30;;;;;;;16.40;100.00;100712.69;1969747;28;20025;-64
2022/09/13 02:47:40;;;;;;;5.70;5.18;;;;;;;16.40;100.00;100712.69;1969742;28;20044;-64
2022/09/13 02:49:12;;;;;;;6.65;5.30;;;;;;;16.40;100.00;100720.59;1969796;28;20026;-64
2022/09/13 02:50:42;;;;;;;5.65;5.00;;;;;;;16.44;100.00;100719.41;1969571;28;20098;-64
2022/09/13 02:51:53;;;;;;;5.60;5.10;;;;;;;16.46;100.00;100719.31;1969637;28;20404;-64
2022/09/13 02:53:08;;;;;;;;;;;;;;;16.38;100.00;100722.47;1969604;28;20485;-64
2022/09/13 02:54:32;;;;;;;7.50;5.07;;;;;;;16.46;100.00;100719.31;1969208;28;19928;-64
2022/09/13 02:56:06;;;;;;;6.38;4.70;;;;;;;16.50;100.00;100726.06;1969648;28;20032;-64
2022/09/13 02:57:31;;;;;;;8.65;5.03;;;;;;;16.54;100.00;100724.03;1969661;28;20115;-64
2022/09/13 02:58:52;;;;;;;6.57;4.93;;;;;;;16.55;100.00;100729.19;1969604;28;20030;-64
2022/09/13 02:59:49;;;;;;;5.55;4.97;;;;;;;16.56;100.00;100724.78;1969677;28;20061;-64
2022/09/13 03:00:47;;;;;;;5.75;5.03;;;;;;;16.62;100.00;100718.25;1969624;28;20026;-64
2022/09/13 03:01:54;;;;;;;6.10;5.50;;;;;;;16.64;100.00;100721.59;1969550;28;20030;-64
2022/09/13 03:02:55;;;;;;;5.65;5.15;;;;;;;16.64;100.00;100722.44;1969410;28;20120;-64
2022/09/13 03:03:53;;;;;;;5.60;5.10;;;;;;;16.68;100.00;100721.28;1969729;28;20021;-65
2022/09/13 03:04:50;;;;;;;5.32;4.85;;;;;;;16.69;100.00;100725.59;1969595;28;20030;-64
2022/09/13 03:05:48;;;;;;;5.88;5.05;;;;;;;16.71;100.00;100717.59;1969657;28;20130;-64
2022/09/13 03:06:47;;;;;;;6.03;5.50;;;;;;;16.73;100.00;100713.88;1966791;28;20032;-64
2022/09/13 03:07:46;;;;;;;5.78;5.05;;;;;;;16.79;100.00;100714.38;1968953;28;20037;-64
2022/09/13 03:08:44;;;;;;;6.32;5.15;;;;;;;16.81;100.00;100717.78;1969545;28;20030;-65
2022/09/13 03:09:50;;;;;;;6.05;5.13;;;;;;;16.81;100.00;100708.09;1969682;28;20022;-64
2022/09/13 03:11:30;;;;;;;6.88;5.55;;;;;;;16.77;100.00;100721.56;1969614;28;20029;-64
2022/09/13 03:12:58;;;;;;;;;;;;;;;16.70;100.00;100716.72;1971472;28;20040;-64
2022/09/13 03:14:16;;;;;;;5.40;4.90;;;;;;;16.74;100.00;100709.47;1971097;28;19909;-64
2022/09/13 03:15:40;;;;;;;6.20;5.25;;;;;;;16.74;100.00;100717.38;1971024;28;20156;-64
2022/09/13 03:17:35;;;;;;;6.90;4.95;;;;;;;16.73;100.00;100716.53;1970835;28;20033;-64
2022/09/13 03:18:47;;;;;;;5.72;5.13;;;;;;;16.74;100.00;100712.09;1960453;28;20520;-64
2022/09/13 03:20:08;;;;;;;5.20;4.70;;;;;;;16.76;100.00;100707.56;1970944;28;20109;-64
2022/09/13 03:21:06;;;;;;;7.13;5.10;;;;;;;16.78;100.00;100707.44;1970936;28;20029;-64
2022/09/13 03:22:47;;;;;;;10.15;5.70;;;;;;;16.77;100.00;100703.13;1971063;28;20022;-65
2022/09/13 03:24:08;;;;;;;5.75;4.95;;;;;;;16.76;100.00;100704.09;1970946;28;20090;-64
2022/09/13 03:25:41;;;;;;;5.47;4.55;;;;;;;16.78;100.00;100699.53;1970471;28;20034;-64
2022/09/13 03:26:56;;;;;;;5.93;5.30;;;;;;;16.78;100.00;100704.81;1970970;28;20061;-64
2022/09/13 03:28:34;;;;;;;6.97;5.15;;;;;;;16.71;100.00;100713.16;1970890;28;20570;-64
2022/09/13 03:29:56;;;;;;;7.03;4.90;;;;;;;16.71;100.00;100707.91;1970827;28;20118;-64
2022/09/13 03:31:26;;;;;;;7.55;5.05;;;;;;;16.69;100.00;100709.78;1970805;28;20022;-64
2022/09/13 03:32:35;;;;;;;7.82;5.50;;;;;;;16.72;100.00;100693.75;1971004;28;20037;-65
2022/09/13 03:34:11;;;;;;;6.13;5.13;;;;;;;16.77;100.00;100695.22;1970914;28;20026;-64
2022/09/13 03:35:32;;;;;;;5.78;4.97;;;;;;;16.76;100.00;100704.09;1970187;28;20022;-64
2022/09/13 03:36:54;;;;;;;8.05;5.40;;;;;;;16.74;100.00;100697.13;1963117;28;20077;-64
2022/09/13 03:38:16;;;;;;;6.22;5.10;;;;;;;16.72;100.00;100699.03;1970434;28;20097;-64
2022/09/13 03:39:40;;;;;;;5.45;4.80;;;;;;;16.76;100.00;100698.81;1970184;28;20125;-64
2022/09/13 03:40:53;;;;;;;7.00;5.10;;;;;;;16.77;100.00;100696.09;1970499;28;20022;-64
2022/09/13 03:41:58;;;;;;;6.85;4.90;;;;;;;16.78;100.00;100695.13;1970780;28;20079;-64
2022/09/13 03:43:34;;;;;;;6.15;5.40;;;;;;;16.77;100.00;100690.81;1970821;28;20124;-64
2022/09/13 03:44:35;;;;;;;6.60;5.13;;;;;;;16.77;100.00;100695.22;1970727;28;20037;-64
2022/09/13 03:45:41;;;;;;;7.18;5.03;;;;;;;16.80;100.00;100698.47;1970794;28;20071;-64
2022/09/13 03:46:44;;;;;;;7.78;5.20;;;;;;;16.81;100.00;100701.97;1970552;28;20116;-64
2022/09/13 03:47:46;;;;;;;5.68;5.18;;;;;;;16.81;100.00;100701.97;1970759;28;20022;-64
2022/09/13 03:48:44;;;;;;;5.78;5.28;;;;;;;16.76;100.00;100698.81;1977898;28;20036;-64
2022/09/13 03:49:41;;;;;;;6.20;4.88;;;;;;;16.73;100.00;100695.44;1977965;28;20102;-64
2022/09/13 03:50:39;;;;;;;5.75;5.25;;;;;;;16.78;100.00;100696.91;1971418;28;20110;-63
2022/09/13 03:51:39;;;;;;;7.13;5.20;;;;;;;16.79;100.00;100695.94;1970827;28;20113;-64
2022/09/13 03:52:36;;;;;;;6.00;5.10;;;;;;;16.80;100.00;100700.28;1970123;28;20034;-64
2022/09/13 03:53:41;;;;;;;5.75;5.13;;;;;;;16.79;100.00;100701.22;1970257;28;20108;-63
2022/09/13 03:54:39;;;;;;;6.20;5.60;;;;;;;16.77;100.00;100696.09;1970067;28;20424;-63
2022/09/13 03:55:42;;;;;;;6.53;5.22;;;;;;;16.78;100.00;100692.50;1970226;28;20025;-63
2022/09/13 03:56:40;;;;;;;6.95;5.53;;;;;;;16.80;100.00;100695.00;1970511;28;20417;-65
2022/09/13 03:57:37;;;;;;;8.93;5.20;;;;;;;16.77;100.00;100689.97;1970739;28;20030;-64
2022/09/13 03:58:34;;;;;;;7.03;5.38;;;;;;;16.81;100.00;100687.00;1970615;28;20087;-64
2022/09/13 03:59:32;;;;;;;7.63;5.35;;;;;;;16.78;100.00;100681.94;1970574;28;20026;-65
2022/09/13 04:00:29;;;;;;;5.82;5.30;;;;;;;16.81;100.00;100681.72;1970021;28;20026;-65
2022/09/13 04:01:27;;;;;;;5.63;5.13;;;;;;;16.83;100.00;100678.97;1970001;28;20042;-64
2022/09/13 04:02:25;;;;;;;10.45;6.32;;;;;;;16.83;100.00;100682.44;1970610;28;20040;-64
2022/09/13 04:03:23;;;;;;;8.60;5.28;;;;;;;16.81;100.00;100692.28;1970507;28;20097;-64
2022/09/13 04:04:20;;;;;;;5.40;4.90;;;;;;;16.83;100.00;100689.50;1970744;28;20136;-65
2022/09/13 04:05:18;;;;;;;7.68;5.50;;;;;;;16.77;100.00;100690.81;1970552;28;20470;-65
2022/09/13 04:06:16;;;;;;;6.68;5.38;;;;;;;16.81;100.00;100687.00;1970671;28;20041;-64
2022/09/13 04:07:22;;;;;;;7.05;5.22;;;;;;;16.84;100.00;100691.22;1968408;28;20022;-64
2022/09/13 04:08:19;;;;;;;6.40;5.50;;;;;;;16.84;100.00;100693.84;1970650;28;20041;-64
2022/09/13 04:09:16;;;;;;;5.93;5.30;;;;;;;16.82;100.00;100687.81;1970631;28;20029;-64
2022/09/13 04:10:14;;;;;;;7.20;5.22;;;;;;;16.79;100.00;100690.69;1970726;28;20040;-64
2022/09/13 04:11:11;;;;;;;6.88;5.75;;;;;;;16.82;100.00;100687.81;1970607;28;20081;-64
2022/09/13 04:12:09;;;;;;;5.30;4.80;;;;;;;16.85;100.00;100698.16;1970637;28;20539;-65
2022/09/13 04:13:07;;;;;;;5.68;5.15;;;;;;;16.86;100.00;100695.41;1970560;28;20025;-64
2022/09/13 04:14:05;;;;;;;7.22;5.65;;;;;;;16.84;100.00;100693.84;1970575;28;20113;-64
2022/09/13 04:15:03;;;;;;;6.53;5.28;;;;;;;16.83;100.00;100700.03;1970598;28;20511;-64
2022/09/13 04:16:02;;;;;;;6.70;5.07;;;;;;;16.85;100.00;100692.88;1970509;28;20034;-64
2022/09/13 04:17:00;;;;;;;7.03;5.50;;;;;;;16.83;100.00;100695.63;1970587;28;20026;-64
2022/09/13 04:17:59;;;;;;;6.50;5.30;;;;;;;16.76;100.00;100717.25;1970540;28;20197;-64
2022/09/13 04:18:57;;;;;;;8.32;5.28;;;;;;;16.78;100.00;100710.06;1970633;28;20029;-64
2022/09/13 04:19:54;;;;;;;8.93;5.53;;;;;;;16.83;100.00;100714.06;1970588;28;20412;-64
2022/09/13 04:20:57;;;;;;;9.13;5.10;;;;;;;16.83;100.00;100716.72;1969934;28;20053;-64
2022/09/13 04:21:55;;;;;;;7.43;5.47;;;;;;;16.85;100.00;100716.59;1969913;28;20089;-64
2022/09/13 04:22:55;;;;;;;8.95;5.20;;;;;;;16.78;100.00;100717.97;1969731;28;20076;-64
2022/09/13 04:23:52;;;;;;;7.30;5.28;;;;;;;16.81;100.00;100713.34;1970410;28;20026;-64
2022/09/13 04:24:50;;;;;;;6.75;5.25;;;;;;;16.82;100.00;100715.03;1969965;28;20034;-64
2022/09/13 04:25:47;;;;;;;8.80;5.95;;;;;;;16.81;100.00;100715.13;1969901;28;20109;-64
2022/09/13 04:26:50;;;;;;;6.00;5.25;;;;;;;16.77;100.00;100716.31;1970484;28;20029;-64
2022/09/13 04:27:52;;;;;;;6.00;5.50;;;;;;;16.75;100.00;100713.78;1970320;28;20040;-64
2022/09/13 04:28:52;;;;;;;7.97;5.70;;;;;;;16.76;100.00;100720.72;1970471;28;20030;-64
2022/09/13 04:29:49;;;;;;;9.57;5.65;;;;;;;16.68;100.00;100717.78;1970429;28;20057;-64
2022/09/13 04:30:48;;;;;;;6.95;5.38;;;;;;;16.59;100.00;100716.63;1970588;28;20040;-64
2022/09/13 04:31:48;;;;;;;6.43;5.35;;;;;;;16.60;100.00;100726.25;1970234;28;20041;-64
2022/09/13 04:32:45;;;;;;;7.40;5.72;;;;;;;16.59;100.00;100727.19;1970441;28;20030;-64
2022/09/13 04:33:42;;;;;;;9.75;5.70;;;;;;;16.61;100.00;100722.66;1970514;28;20541;-64
2022/09/13 04:34:40;;;;;;;6.93;6.13;;;;;;;16.64;100.00;100727.72;1970416;28;20498;-64
2022/09/13 04:35:40;;;;;;;11.57;5.85;;;;;;;16.63;100.00;100723.38;1970496;28;20049;-64
2022/09/13 04:36:38;;;;;;;9.48;5.65;;;;;;;16.60;100.00;100729.72;1968356;28;20036;-63
2022/09/13 04:37:37;;;;;;;9.35;6.30;;;;;;;16.58;100.00;100738.66;1970468;28;20029;-63
2022/09/13 04:38:36;;;;;;;11.00;6.13;;;;;;;16.60;100.00;100731.53;1969699;28;20511;-64
2022/09/13 04:39:33;;;;;;;10.15;7.05;;;;;;;16.61;100.00;100735.81;1969985;28;20369;-64
2022/09/13 04:40:31;;;;;;;15.50;6.22;;;;;;;16.59;100.00;100743.84;1970286;28;20036;-64
2022/09/13 04:41:28;;;;;;;6.57;5.82;;;;;;;16.60;100.00;100740.25;1970464;28;20088;-64
2022/09/13 04:42:25;;;;;;;11.20;6.15;;;;;;;16.56;100.00;100740.59;1970323;28;20036;-64
2022/09/13 04:43:24;;;;;;;11.10;6.90;;;;;;;16.46;100.00;100740.38;1970372;28;20021;-64
2022/09/13 04:44:23;;;;;;;12.90;7.25;;;;;;;16.46;100.00;100735.13;1970343;28;20026;-65
2022/09/13 04:45:20;;;;;;;7.97;6.10;;;;;;;16.51;100.00;100734.78;1970399;28;20381;-64
2022/09/13 04:46:18;;;;;;;9.25;6.32;;;;;;;16.47;100.00;100742.91;1970276;28;20037;-65
2022/09/13 04:47:15;;;;;;;9.48;7.00;;;;;;;16.48;100.00;100734.06;1970308;28;20500;-64
2022/09/13 04:48:12;;;;;;;10.25;7.00;;;;;;;16.50;100.00;100741.00;1970332;28;20061;-64
2022/09/13 04:49:10;;;;;;;11.02;7.00;;;;;;;16.46;100.00;100735.94;1970188;28;20030;-64
2022/09/13 04:50:08;;;;;;;7.82;6.47;;;;;;;16.45;100.00;100739.53;1970373;28;20022;-64
2022/09/13 04:51:06;;;;;;;7.50;6.72;;;;;;;16.43;100.00;100736.16;1970289;28;20068;-64
2022/09/13 04:52:03;;;;;;;9.88;6.65;;;;;;;16.42;100.00;100737.09;1970408;28;20076;-64
2022/09/13 04:53:01;;;;;;;8.35;6.30;;;;;;;16.41;100.00;100737.19;1970311;28;20033;-64
2022/09/13 04:53:59;;;;;;;8.45;6.57;;;;;;;16.42;100.00;100734.47;1970311;28;20052;-64
2022/09/13 04:55:00;;;;;;;7.55;6.43;;;;;;;16.39;100.00;100737.31;1970254;28;20030;-64
2022/09/13 04:56:02;;;;;;;8.85;6.75;;;;;;;16.35;100.00;100733.19;1970393;28;20026;-64
2022/09/13 04:56:59;;;;;;;10.35;6.88;;;;;;;16.37;100.00;100731.31;1970174;28;20033;-65
2022/09/13 04:57:57;;;;;;;8.23;6.70;;;;;;;16.39;100.00;100728.59;1970308;28;20704;-64
2022/09/13 04:58:55;;;;;;;10.77;7.28;;;;;;;16.39;100.00;100733.84;1970316;28;20528;-64
2022/09/13 04:59:52;;;;;;;10.43;6.93;;;;;;;16.39;100.00;100732.03;1970247;28;20117;-64
2022/09/13 05:00:55;;;;;;;10.52;7.13;;;;;;;16.38;100.00;100738.25;1970342;28;20128;-64
2022/09/13 05:01:52;;;;;;;12.02;6.68;;;;;;;16.38;100.00;100737.44;1970197;28;20029;-64
2022/09/13 05:02:55;;;;;;;9.32;6.32;;;;;;;16.35;100.00;100744.59;1969568;28;20179;-64
2022/09/13 05:03:52;;;;;;;8.95;7.05;;;;;;;16.38;100.00;100743.53;1969685;28;20061;-64
2022/09/13 05:04:50;;;;;;;7.93;6.75;;;;;;;16.39;100.00;100737.31;1970288;28;20532;-64
2022/09/13 05:05:47;;;;;;;11.77;6.43;;;;;;;16.38;100.00;100727.72;1969634;28;20488;-64
2022/09/13 05:06:46;;;;;;;13.25;7.20;;;;;;;16.41;100.00;100735.44;1967524;28;20047;-64
2022/09/13 05:07:43;;;;;;;13.95;6.53;;;;;;;16.36;100.00;100729.66;1961753;28;20533;-64
2022/09/13 05:08:41;;;;;;;8.80;6.65;;;;;;;16.38;100.00;100733.00;1969033;28;20036;-64
2022/09/13 05:09:38;;;;;;;10.30;7.05;;;;;;;16.39;100.00;100729.41;1970076;28;20367;-64
2022/09/13 05:10:35;;;;;;;9.43;6.97;;;;;;;16.41;100.00;100738.06;1970267;28;20029;-65